Time;durP1;ratioP1;P1;durP2;ratioP2;P2;SDS_P1;SDS_P2;PMS_P1;PMS_P2;Temp;Humidity;BMP_temperature;BMP_pressure;BME280_temperature;BME280_humidity;BME280_pressure;Samples;Min_cycle;Max_cycle;Signal;HPM_P1;HPM_P2
2022/01/29 00:00:39;;;;;;;4.65;2.33;;;;;;;;;;7391774;19;20010;-78
2022/01/29 00:03:05;;;;;;;8.48;2.45;;;;;;;;;;7389968;19;20005;-78
2022/01/29 00:05:30;;;;;;;4.95;2.20;;;;;;;;;;7393005;19;20457;-78
2022/01/29 00:07:55;;;;;;;3.92;2.10;;;;;;;;;;7393606;19;20007;-78
2022/01/29 00:10:21;;;;;;;4.90;2.00;;;;;;;;;;7392586;19;20006;-78
2022/01/29 00:12:46;;;;;;;4.38;2.30;;;;;;;;;;7391891;19;20464;-78
2022/01/29 00:15:11;;;;;;;3.60;2.10;;;;;;;;;;7391271;19;20094;-78
2022/01/29 00:17:37;;;;;;;4.55;1.92;;;;;;;;;;7394095;19;20174;-78
2022/01/29 00:20:04;;;;;;;5.10;2.75;;;;;;;;;;7390446;19;20095;-77
2022/01/29 00:22:29;;;;;;;5.68;2.50;;;;;;;;;;7392099;19;20502;-78
2022/01/29 00:24:57;;;;;;;4.70;2.50;;;;;;;;;;7394043;19;20018;-78
2022/01/29 00:27:22;;;;;;;4.40;2.45;;;;;;;;;;7393772;19;19995;-78
2022/01/29 00:29:48;;;;;;;7.80;2.25;;;;;;;;;;7392251;19;20036;-78
2022/01/29 00:32:13;;;;;;;4.55;2.25;;;;;;;;;;7388686;19;20019;-78
2022/01/29 00:34:40;;;;;;;4.72;2.20;;;;;;;;;;7392742;19;20388;-78
2022/01/29 00:37:06;;;;;;;5.82;2.20;;;;;;;;;;7394636;19;20332;-79
2022/01/29 00:39:32;;;;;;;4.47;2.35;;;;;;;;;;7391445;19;20082;-78
2022/01/29 00:41:57;;;;;;;4.22;2.15;;;;;;;;;;7390595;19;20209;-78
2022/01/29 00:44:23;;;;;;;8.75;2.83;;;;;;;;;;7390627;19;20002;-78
2022/01/29 00:46:48;;;;;;;10.00;4.47;;;;;;;;;;7391766;19;19999;-77
2022/01/29 00:49:14;;;;;;;6.18;2.40;;;;;;;;;;7391411;19;20019;-78
2022/01/29 00:51:40;;;;;;;4.90;2.28;;;;;;;;;;7388918;19;20011;-78
2022/01/29 00:54:05;;;;;;;4.88;2.30;;;;;;;;;;7390314;19;20014;-79
2022/01/29 00:56:31;;;;;;;5.15;2.38;;;;;;;;;;7390634;19;20011;-79
2022/01/29 00:58:56;;;;;;;5.25;2.25;;;;;;;;;;7389617;19;20007;-79
2022/01/29 01:01:22;;;;;;;4.40;1.92;;;;;;;;;;7389586;19;20036;-79
2022/01/29 01:03:47;;;;;;;3.95;2.15;;;;;;;;;;7389229;19;20509;-79
2022/01/29 01:06:12;;;;;;;6.78;2.20;;;;;;;;;;7391602;19;20003;-79
2022/01/29 01:08:38;;;;;;;4.55;2.60;;;;;;;;;;7390647;19;20014;-79
2022/01/29 01:11:04;;;;;;;7.10;2.25;;;;;;;;;;7389892;19;20010;-79
2022/01/29 01:13:33;;;;;;;3.63;2.20;;;;;;;;;;7387331;19;20082;-79
2022/01/29 01:15:58;;;;;;;4.95;2.00;;;;;;;;;;7390547;19;20027;-79
2022/01/29 01:18:24;;;;;;;4.90;2.50;;;;;;;;;;7389545;19;20010;-79
2022/01/29 01:20:50;;;;;;;6.30;2.80;;;;;;;;;;7389661;19;20006;-79
2022/01/29 01:23:15;;;;;;;3.75;2.45;;;;;;;;;;7390008;19;20014;-79
2022/01/29 01:25:40;;;;;;;5.20;2.55;;;;;;;;;;7389052;19;20006;-78
2022/01/29 01:28:06;;;;;;;3.95;2.38;;;;;;;;;;7389329;19;20007;-79
2022/01/29 01:30:32;;;;;;;4.20;2.70;;;;;;;;;;7387286;19;20030;-79
2022/01/29 01:33:00;;;;;;;7.05;2.90;;;;;;;;;;7389451;19;20010;-80
2022/01/29 01:35:31;;;;;;;3.80;2.47;;;;;;;;;;7390060;19;20031;-80
2022/01/29 01:38:09;;;;;;;5.00;2.50;;;;;;;;;;7386983;19;20059;-79
2022/01/29 01:40:37;;;;;;;4.05;2.08;;;;;;;;;;7385552;19;20006;-79
2022/01/29 01:43:02;;;;;;;4.47;2.55;;;;;;;;;;7390265;19;20487;-79
2022/01/29 01:45:28;;;;;;;4.32;2.58;;;;;;;;;;7389295;19;20002;-80
2022/01/29 01:47:55;;;;;;;4.90;2.72;;;;;;;;;;7390950;19;20035;-80
2022/01/29 01:50:21;;;;;;;4.15;2.15;;;;;;;;;;7389876;19;20010;-80
2022/01/29 01:52:48;;;;;;;7.70;2.50;;;;;;;;;;7390817;19;20014;-79
2022/01/29 01:55:14;;;;;;;5.30;2.17;;;;;;;;;;7391617;19;20023;-80
2022/01/29 01:57:39;;;;;;;6.60;2.25;;;;;;;;;;7389558;19;20377;-79
2022/01/29 02:00:07;;;;;;;4.28;2.47;;;;;;;;;;7389812;19;20007;-79
2022/01/29 02:02:32;;;;;;;5.43;2.70;;;;;;;;;;7388053;19;20450;-79
2022/01/29 02:04:58;;;;;;;3.85;2.45;;;;;;;;;;7387679;19;20045;-79
2022/01/29 02:07:23;;;;;;;5.43;2.13;;;;;;;;;;7390827;19;20017;-80
2022/01/29 02:09:48;;;;;;;3.83;2.72;;;;;;;;;;7388333;19;20010;-79
2022/01/29 02:12:14;;;;;;;5.97;2.45;;;;;;;;;;7385984;19;19995;-81
2022/01/29 02:14:40;;;;;;;6.60;2.60;;;;;;;;;;7390698;19;20018;-80
2022/01/29 02:17:07;;;;;;;4.93;2.38;;;;;;;;;;7391299;19;20007;-79
2022/01/29 02:19:33;;;;;;;3.28;2.22;;;;;;;;;;7390976;19;20007;-80
2022/01/29 02:21:58;;;;;;;4.13;2.40;;;;;;;;;;7392904;19;20006;-80
2022/01/29 02:24:25;;;;;;;4.18;2.30;;;;;;;;;;7391969;19;20013;-79
2022/01/29 02:26:51;;;;;;;4.20;2.33;;;;;;;;;;7398354;19;20070;-79
2022/01/29 02:29:16;;;;;;;4.18;2.33;;;;;;;;;;7398107;19;20043;-80
2022/01/29 02:31:51;;;;;;;6.90;2.47;;;;;;;;;;7394370;19;20074;-80
2022/01/29 02:34:18;;;;;;;4.22;2.67;;;;;;;;;;7396004;19;20014;-80
2022/01/29 02:36:44;;;;;;;4.88;2.33;;;;;;;;;;7395030;19;20007;-80
2022/01/29 02:39:11;;;;;;;3.92;2.10;;;;;;;;;;7394467;19;19999;-80
2022/01/29 02:41:39;;;;;;;5.97;2.47;;;;;;;;;;7393215;19;20014;-80
2022/01/29 02:44:06;;;;;;;6.38;2.38;;;;;;;;;;7391452;19;20031;-80
2022/01/29 02:46:48;;;;;;;6.10;2.50;;;;;;;;;;7395335;19;20063;-81
2022/01/29 02:49:23;;;;;;;7.22;2.63;;;;;;;;;;7395888;19;20067;-80
2022/01/29 02:51:51;;;;;;;5.03;2.22;;;;;;;;;;7396737;19;20002;-79
2022/01/29 02:54:17;;;;;;;4.22;2.35;;;;;;;;;;7397947;19;20113;-81
2022/01/29 02:56:42;;;;;;;4.30;2.63;;;;;;;;;;7398767;19;20075;-79
2022/01/29 02:59:08;;;;;;;8.27;2.40;;;;;;;;;;7395334;19;20014;-80
2022/01/29 03:01:33;;;;;;;6.20;2.58;;;;;;;;;;7396107;19;20002;-80
2022/01/29 03:03:58;;;;;;;5.65;2.65;;;;;;;;;;7395118;19;20002;-79
2022/01/29 03:06:24;;;;;;;3.58;2.40;;;;;;;;;;7396812;19;20007;-79
2022/01/29 03:08:49;;;;;;;6.93;2.40;;;;;;;;;;7395445;19;20103;-80
2022/01/29 03:11:19;;;;;;;5.50;2.67;;;;;;;;;;7398755;19;20040;-79
2022/01/29 03:13:44;;;;;;;3.85;2.17;;;;;;;;;;7397506;19;20111;-80
2022/01/29 03:16:10;;;;;;;5.25;2.40;;;;;;;;;;7399307;19;20139;-79
2022/01/29 03:18:35;;;;;;;6.88;2.65;;;;;;;;;;7398274;19;20002;-79
2022/01/29 03:21:00;;;;;;;5.80;2.40;;;;;;;;;;7395791;19;20026;-81
2022/01/29 03:23:26;;;;;;;4.50;2.28;;;;;;;;;;7393402;19;19999;-81
2022/01/29 03:25:51;;;;;;;4.18;2.45;;;;;;;;;;7397086;19;20027;-81
2022/01/29 03:28:16;;;;;;;5.40;2.83;;;;;;;;;;7395170;19;20005;-80
2022/01/29 03:30:41;;;;;;;4.38;2.22;;;;;;;;;;7396405;19;20412;-79
2022/01/29 03:33:07;;;;;;;5.38;2.60;;;;;;;;;;7397190;19;20006;-80
2022/01/29 03:35:32;;;;;;;6.53;2.63;;;;;;;;;;7396365;19;19998;-80
2022/01/29 03:37:58;;;;;;;3.75;2.38;;;;;;;;;;7393959;19;20025;-80
2022/01/29 03:40:23;;;;;;;5.78;2.38;;;;;;;;;;7396329;19;20025;-80
2022/01/29 03:43:00;;;;;;;7.28;3.33;;;;;;;;;;7395295;19;20032;-80
2022/01/29 03:45:26;;;;;;;5.47;2.63;;;;;;;;;;7397620;19;20006;-81
2022/01/29 03:47:51;;;;;;;5.60;2.80;;;;;;;;;;7393765;19;19999;-80
2022/01/29 03:50:16;;;;;;;5.60;2.85;;;;;;;;;;7395141;19;20077;-80
2022/01/29 03:52:42;;;;;;;5.70;2.58;;;;;;;;;;7392908;19;20026;-79
2022/01/29 03:55:08;;;;;;;7.15;2.58;;;;;;;;;;7392848;19;20482;-79
2022/01/29 03:57:33;;;;;;;6.30;2.90;;;;;;;;;;7391834;19;20521;-79
2022/01/29 03:59:58;;;;;;;3.65;2.30;;;;;;;;;;7393064;19;20021;-79
2022/01/29 04:02:23;;;;;;;6.68;2.78;;;;;;;;;;7392014;19;20007;-80
2022/01/29 04:04:49;;;;;;;4.97;2.10;;;;;;;;;;7394702;19;20019;-79
2022/01/29 04:07:14;;;;;;;5.57;2.75;;;;;;;;;;7394180;19;20453;-79
2022/01/29 04:09:46;;;;;;;5.88;2.40;;;;;;;;;;7392737;19;19998;-80
2022/01/29 04:12:13;;;;;;;6.80;3.13;;;;;;;;;;7394581;19;20010;-81
2022/01/29 04:14:39;;;;;;;6.50;2.67;;;;;;;;;;7401207;19;20010;-79
2022/01/29 04:17:05;;;;;;;8.25;3.38;;;;;;;;;;7396049;19;20074;-80
2022/01/29 04:19:30;;;;;;;5.30;2.80;;;;;;;;;;7396945;19;20031;-80
2022/01/29 04:21:56;;;;;;;4.93;3.00;;;;;;;;;;7397086;19;20006;-81
2022/01/29 04:24:21;;;;;;;6.13;2.80;;;;;;;;;;7393862;19;20098;-80
2022/01/29 04:26:46;;;;;;;5.10;2.85;;;;;;;;;;7394807;19;19998;-80
2022/01/29 04:29:11;;;;;;;6.30;2.40;;;;;;;;;;7392946;19;20002;-80
2022/01/29 04:31:44;;;;;;;7.00;2.85;;;;;;;;;;7393662;19;20006;-81
2022/01/29 04:34:09;;;;;;;4.85;2.40;;;;;;;;;;7394963;19;20006;-80
2022/01/29 04:36:35;;;;;;;3.75;2.20;;;;;;;;;;7394992;19;20013;-80
2022/01/29 04:39:00;;;;;;;8.77;3.03;;;;;;;;;;7393294;19;20038;-80
2022/01/29 04:41:25;;;;;;;4.72;2.20;;;;;;;;;;7390862;19;20074;-81
2022/01/29 04:43:51;;;;;;;3.88;2.08;;;;;;;;;;7392086;19;20002;-80
2022/01/29 04:46:16;;;;;;;3.78;2.13;;;;;;;;;;7390571;19;20499;-80
2022/01/29 04:48:41;;;;;;;4.82;2.53;;;;;;;;;;7388568;19;20010;-80
2022/01/29 04:51:06;;;;;;;5.38;2.30;;;;;;;;;;7388472;19;20002;-80
2022/01/29 04:53:32;;;;;;;3.60;2.00;;;;;;;;;;7390087;19;20010;-80
2022/01/29 04:55:58;;;;;;;3.58;2.35;;;;;;;;;;7391815;19;20013;-80
2022/01/29 04:58:23;;;;;;;5.20;2.70;;;;;;;;;;7389604;19;20307;-79
2022/01/29 05:00:48;;;;;;;6.05;2.67;;;;;;;;;;7389685;19;19994;-80
2022/01/29 05:03:14;;;;;;;5.43;2.67;;;;;;;;;;7391046;19;20014;-80
2022/01/29 05:05:41;;;;;;;5.60;2.25;;;;;;;;;;7392501;19;20010;-80
2022/01/29 05:08:07;;;;;;;4.68;2.90;;;;;;;;;;7392000;19;20070;-81
2022/01/29 05:10:33;;;;;;;3.85;1.98;;;;;;;;;;7390867;19;20350;-79
2022/01/29 05:13:06;;;;;;;4.78;2.17;;;;;;;;;;7386523;19;20003;-78
2022/01/29 05:15:40;;;;;;;3.72;2.28;;;;;;;;;;7388394;19;20500;-78
2022/01/29 05:29:03;;;;;;;3.88;2.20;;;;;;;;;;7391232;19;20125;-79
2022/01/29 05:31:29;;;;;;;4.03;2.90;;;;;;;;;;7391891;19;20017;-80
2022/01/29 05:33:54;;;;;;;6.53;2.35;;;;;;;;;;7393059;19;20486;-79
2022/01/29 05:36:19;;;;;;;4.55;1.95;;;;;;;;;;7393116;19;20079;-80
2022/01/29 05:38:45;;;;;;;5.97;2.60;;;;;;;;;;7393250;19;20038;-79
2022/01/29 05:41:10;;;;;;;3.53;2.60;;;;;;;;;;7392306;19;20006;-79
2022/01/29 05:43:36;;;;;;;4.35;2.65;;;;;;;;;;7392744;19;20133;-79
2022/01/29 05:46:01;;;;;;;5.47;2.35;;;;;;;;;;7389603;19;20002;-80
2022/01/29 05:48:26;;;;;;;4.53;2.15;;;;;;;;;;7392156;19;20010;-79
2022/01/29 05:50:52;;;;;;;3.70;2.08;;;;;;;;;;7390481;19;20005;-79
2022/01/29 05:53:17;;;;;;;3.60;1.80;;;;;;;;;;7392638;19;19999;-79
2022/01/29 05:55:42;;;;;;;3.53;1.95;;;;;;;;;;7392570;19;20033;-79
2022/01/29 05:58:08;;;;;;;5.50;2.67;;;;;;;;;;7390971;19;20101;-79
2022/01/29 06:00:33;;;;;;;3.80;2.15;;;;;;;;;;7392529;19;20006;-79
2022/01/29 06:03:03;;;;;;;3.95;2.00;;;;;;;;;;7392693;19;20006;-79
2022/01/29 06:05:29;;;;;;;6.35;1.98;;;;;;;;;;7394847;19;20030;-79
2022/01/29 06:07:55;;;;;;;6.65;2.08;;;;;;;;;;7393562;19;20007;-79
2022/01/29 06:10:21;;;;;;;3.80;2.10;;;;;;;;;;7390975;19;20100;-79
2022/01/29 06:13:04;;;;;;;5.05;2.53;;;;;;;;;;7388893;19;20014;-78
2022/01/29 06:15:39;;;;;;;3.35;1.80;;;;;;;;;;7392716;19;20006;-80
2022/01/29 06:18:04;;;;;;;5.88;2.53;;;;;;;;;;7393375;19;20007;-79
2022/01/29 06:20:30;;;;;;;3.38;1.80;;;;;;;;;;7370223;19;20025;-78
2022/01/29 06:22:55;;;;;;;3.85;2.03;;;;;;;;;;7390629;19;19998;-78
2022/01/29 06:25:21;;;;;;;4.15;2.22;;;;;;;;;;7392675;19;20043;-79
2022/01/29 06:27:46;;;;;;;2.60;1.90;;;;;;;;;;7394986;19;20027;-78
2022/01/29 06:30:12;;;;;;;4.57;1.90;;;;;;;;;;7394786;19;20027;-78
2022/01/29 06:32:38;;;;;;;4.00;1.90;;;;;;;;;;7393273;19;20061;-79
2022/01/29 06:35:04;;;;;;;2.85;1.70;;;;;;;;;;7393647;19;20116;-79
2022/01/29 06:37:29;;;;;;;6.35;2.42;;;;;;;;;;7396663;19;20010;-78
2022/01/29 06:39:55;;;;;;;2.50;1.50;;;;;;;;;;7392531;19;20352;-78
2022/01/29 06:42:20;;;;;;;3.75;2.13;;;;;;;;;;7392802;19;19999;-79
2022/01/29 06:44:45;;;;;;;2.08;1.70;;;;;;;;;;7362567;19;20030;-79
2022/01/29 06:47:11;;;;;;;3.83;1.63;;;;;;;;;;7394603;19;19998;-79
2022/01/29 06:49:36;;;;;;;2.78;1.50;;;;;;;;;;7395144;19;20026;-78
2022/01/29 06:52:01;;;;;;;3.45;1.92;;;;;;;;;;7396410;19;20010;-79
2022/01/29 06:54:27;;;;;;;2.72;2.00;;;;;;;;;;7395066;19;20500;-79
2022/01/29 06:56:52;;;;;;;3.63;2.63;;;;;;;;;;7395679;19;20002;-79
2022/01/29 06:59:17;;;;;;;4.80;2.42;;;;;;;;;;7390020;19;20493;-78
2022/01/29 07:01:42;;;;;;;5.10;2.28;;;;;;;;;;7393308;19;20003;-79
2022/01/29 07:04:08;;;;;;;5.13;2.20;;;;;;;;;;7392546;19;20002;-79
2022/01/29 07:06:33;;;;;;;4.25;2.20;;;;;;;;;;7395240;19;20020;-79
2022/01/29 07:08:59;;;;;;;7.93;3.17;;;;;;;;;;7392072;19;20118;-79
2022/01/29 07:11:25;;;;;;;3.25;2.20;;;;;;;;;;7395754;19;20006;-78
2022/01/29 07:14:01;;;;;;;4.72;2.67;;;;;;;;;;7399573;19;20010;-78
2022/01/29 07:16:28;;;;;;;5.22;2.47;;;;;;;;;;7400640;19;20102;-79
2022/01/29 07:18:53;;;;;;;6.30;2.45;;;;;;;;;;7398368;19;20013;-79
2022/01/29 07:21:18;;;;;;;4.30;2.50;;;;;;;;;;7392349;19;20066;-77
2022/01/29 07:23:44;;;;;;;4.93;2.63;;;;;;;;;;7390726;19;20423;-76
2022/01/29 07:26:09;;;;;;;5.90;2.55;;;;;;;;;;7393109;19;20465;-77
2022/01/29 07:28:34;;;;;;;7.65;3.25;;;;;;;;;;7391509;19;20013;-77
2022/01/29 07:30:59;;;;;;;6.18;2.70;;;;;;;;;;7390892;19;20002;-77
2022/01/29 07:33:25;;;;;;;7.85;2.58;;;;;;;;;;7392597;19;20426;-76
2022/01/29 07:35:50;;;;;;;3.65;2.63;;;;;;;;;;7393109;19;19999;-77
2022/01/29 07:38:15;;;;;;;5.22;2.53;;;;;;;;;;7391739;19;20028;-76
2022/01/29 07:40:41;;;;;;;6.50;2.50;;;;;;;;;;7392052;19;20426;-77
2022/01/29 07:43:06;;;;;;;5.32;2.75;;;;;;;;;;7392491;19;20010;-77
2022/01/29 07:45:31;;;;;;;5.38;2.10;;;;;;;;;;7391509;19;20027;-75
2022/01/29 07:47:56;;;;;;;5.05;2.80;;;;;;;;;;7394398;19;20006;-76
2022/01/29 07:50:22;;;;;;;5.97;2.40;;;;;;;;;;7393556;19;20002;-77
2022/01/29 07:52:47;;;;;;;3.50;2.63;;;;;;;;;;7388480;19;20101;-76
2022/01/29 07:55:13;;;;;;;4.18;2.92;;;;;;;;;;7392351;19;19999;-79
2022/01/29 07:57:38;;;;;;;7.80;2.75;;;;;;;;;;7393839;19;20013;-77
2022/01/29 08:00:04;;;;;;;5.55;2.90;;;;;;;;;;7392840;19;20009;-79
2022/01/29 08:02:29;;;;;;;5.18;2.63;;;;;;;;;;7391978;19;20094;-78
2022/01/29 08:04:55;;;;;;;5.78;2.90;;;;;;;;;;7393181;19;20037;-78
2022/01/29 08:07:20;;;;;;;4.85;2.40;;;;;;;;;;7392623;19;20017;-78
2022/01/29 08:09:45;;;;;;;4.65;2.63;;;;;;;;;;7391884;19;20085;-79
2022/01/29 08:12:11;;;;;;;4.13;2.40;;;;;;;;;;7392584;19;20018;-77
2022/01/29 08:14:36;;;;;;;4.47;2.15;;;;;;;;;;7392575;19;21620;-78
2022/01/29 08:17:01;;;;;;;5.45;2.53;;;;;;;;;;7391915;19;20007;-78
2022/01/29 08:19:26;;;;;;;3.67;1.95;;;;;;;;;;7393651;19;20002;-76
2022/01/29 08:21:52;;;;;;;4.88;2.33;;;;;;;;;;7385868;19;20175;-75
2022/01/29 08:24:17;;;;;;;5.00;2.58;;;;;;;;;;7380180;19;20002;-79
2022/01/29 08:26:42;;;;;;;5.65;2.75;;;;;;;;;;7389243;19;20024;-78
2022/01/29 08:29:07;;;;;;;5.55;2.67;;;;;;;;;;7393939;19;20012;-78
2022/01/29 08:31:33;;;;;;;6.18;2.55;;;;;;;;;;7394192;19;20103;-77
2022/01/29 08:33:58;;;;;;;6.13;2.92;;;;;;;;;;7393022;19;19998;-78
2022/01/29 08:36:23;;;;;;;5.30;2.60;;;;;;;;;;7394355;19;20007;-78
2022/01/29 08:38:49;;;;;;;4.85;3.25;;;;;;;;;;7389474;19;20032;-79
2022/01/29 08:41:14;;;;;;;7.20;2.65;;;;;;;;;;7388776;19;20042;-78
2022/01/29 08:43:39;;;;;;;3.45;2.15;;;;;;;;;;7387372;19;20027;-78
2022/01/29 08:46:05;;;;;;;6.25;2.63;;;;;;;;;;7389973;19;20018;-77
2022/01/29 08:48:30;;;;;;;3.72;2.47;;;;;;;;;;7394072;19;20029;-77
2022/01/29 08:50:55;;;;;;;5.10;2.85;;;;;;;;;;7388256;19;20407;-78
2022/01/29 08:53:21;;;;;;;3.63;2.30;;;;;;;;;;7394586;19;20308;-79
2022/01/29 08:55:46;;;;;;;4.20;2.35;;;;;;;;;;7392834;19;20110;-78
2022/01/29 08:58:12;;;;;;;9.63;2.67;;;;;;;;;;7393118;19;20015;-78
2022/01/29 09:00:41;;;;;;;5.75;3.55;;;;;;;;;;7394659;19;20014;-79
2022/01/29 09:03:06;;;;;;;5.85;2.80;;;;;;;;;;7391844;19;20009;-78
2022/01/29 09:05:34;;;;;;;5.68;2.70;;;;;;;;;;7392695;19;20085;-78
2022/01/29 09:07:59;;;;;;;4.20;2.90;;;;;;;;;;7391090;19;20009;-78
2022/01/29 09:10:26;;;;;;;7.63;3.40;;;;;;;;;;7391814;19;20017;-79
2022/01/29 09:12:52;;;;;;;6.25;2.88;;;;;;;;;;7393345;19;20022;-78
2022/01/29 09:15:17;;;;;;;13.43;5.53;;;;;;;;;;7390665;19;20011;-78
2022/01/29 09:17:43;;;;;;;9.05;4.53;;;;;;;;;;7391144;19;20081;-79
2022/01/29 09:20:09;;;;;;;18.70;7.50;;;;;;;;;;7390596;19;20029;-78
2022/01/29 09:22:35;;;;;;;11.15;5.03;;;;;;;;;;7387996;19;20033;-79
2022/01/29 09:25:00;;;;;;;9.18;4.18;;;;;;;;;;7391391;19;20014;-79
2022/01/29 09:27:25;;;;;;;5.53;3.30;;;;;;;;;;7390864;19;20107;-79
2022/01/29 09:29:50;;;;;;;4.53;3.17;;;;;;;;;;7388228;19;20007;-78
2022/01/29 09:32:16;;;;;;;9.00;4.63;;;;;;;;;;7387901;19;20003;-78
2022/01/29 09:34:41;;;;;;;5.43;3.30;;;;;;;;;;7388384;19;20006;-79
2022/01/29 09:37:06;;;;;;;7.88;2.88;;;;;;;;;;7389700;19;20320;-79
2022/01/29 09:39:32;;;;;;;6.68;2.65;;;;;;;;;;7389941;19;20031;-79
2022/01/29 09:41:57;;;;;;;5.05;2.17;;;;;;;;;;7392410;19;20021;-79
2022/01/29 09:44:22;;;;;;;4.45;2.47;;;;;;;;;;7390502;19;20014;-80
2022/01/29 09:46:51;;;;;;;5.22;2.38;;;;;;;;;;7392002;19;20003;-78
2022/01/29 09:49:17;;;;;;;4.07;2.30;;;;;;;;;;7394105;19;20006;-79
2022/01/29 09:51:43;;;;;;;5.10;2.70;;;;;;;;;;7391635;19;20014;-80
2022/01/29 09:54:09;;;;;;;3.10;2.30;;;;;;;;;;7388574;19;20009;-81
2022/01/29 09:56:34;;;;;;;7.05;2.70;;;;;;;;;;7390804;19;20019;-80
2022/01/29 09:58:59;;;;;;;4.95;2.70;;;;;;;;;;7387549;19;20034;-79
2022/01/29 10:01:25;;;;;;;4.10;2.42;;;;;;;;;;7387305;19;20058;-79
2022/01/29 10:04:02;;;;;;;6.35;2.80;;;;;;;;;;7385660;19;20022;-79
2022/01/29 10:06:28;;;;;;;4.80;2.40;;;;;;;;;;7386103;19;20492;-78
2022/01/29 10:08:53;;;;;;;5.10;2.22;;;;;;;;;;7388549;19;20115;-78
2022/01/29 10:11:20;;;;;;;4.47;2.47;;;;;;;;;;7387772;19;20537;-78
2022/01/29 10:13:47;;;;;;;4.07;2.35;;;;;;;;;;7390844;19;20010;-79
2022/01/29 10:16:14;;;;;;;4.07;2.30;;;;;;;;;;7389244;19;20072;-79
2022/01/29 10:18:41;;;;;;;7.13;2.42;;;;;;;;;;7387846;19;20446;-79
2022/01/29 10:21:08;;;;;;;4.05;2.17;;;;;;;;;;7389338;19;20006;-79
2022/01/29 10:23:34;;;;;;;3.55;2.35;;;;;;;;;;7389291;19;20006;-79
2022/01/29 10:26:00;;;;;;;4.70;2.38;;;;;;;;;;7389590;19;19987;-80
2022/01/29 10:28:26;;;;;;;2.65;1.80;;;;;;;;;;7387360;19;20001;-79
2022/01/29 10:31:00;;;;;;;5.20;3.17;;;;;;;;;;7388012;19;20010;-80
2022/01/29 10:33:27;;;;;;;9.00;2.67;;;;;;;;;;7390167;19;20007;-78
2022/01/29 10:35:53;;;;;;;5.20;2.17;;;;;;;;;;7388560;19;20015;-79
2022/01/29 10:38:25;;;;;;;7.57;2.78;;;;;;;;;;7393289;19;20017;-79
2022/01/29 10:41:18;;;;;;;6.95;2.20;;;;;;;;;;7398120;19;20007;-81
2022/01/29 10:44:09;;;;;;;3.38;1.92;;;;;;;;;;7393577;19;19999;-80
2022/01/29 10:46:37;;;;;;;4.00;2.60;;;;;;;;;;7398544;19;20010;-80
2022/01/29 10:49:03;;;;;;;5.40;2.40;;;;;;;;;;7363638;19;20033;-81
2022/01/29 10:51:28;;;;;;;4.82;2.40;;;;;;;;;;7395950;19;20462;-79
2022/01/29 10:53:54;;;;;;;5.90;2.10;;;;;;;;;;7397388;19;20043;-80
2022/01/29 10:56:20;;;;;;;4.22;2.35;;;;;;;;;;7397617;19;20019;-80
2022/01/29 10:58:50;;;;;;;6.18;1.95;;;;;;;;;;7397489;19;20325;-79
2022/01/29 11:01:24;;;;;;;3.67;2.10;;;;;;;;;;7393232;19;20346;-79
2022/01/29 11:03:53;;;;;;;3.72;2.28;;;;;;;;;;7393440;19;20002;-79
2022/01/29 11:06:21;;;;;;;4.78;2.17;;;;;;;;;;7394898;19;20601;-79
2022/01/29 11:08:47;;;;;;;3.53;1.90;;;;;;;;;;7395178;19;20006;-79
2022/01/29 11:11:13;;;;;;;3.75;2.03;;;;;;;;;;7390935;19;20031;-80
2022/01/29 11:13:41;;;;;;;3.83;1.92;;;;;;;;;;7394990;19;20014;-79
2022/01/29 11:16:06;;;;;;;5.38;2.47;;;;;;;;;;7393256;19;20006;-79
2022/01/29 11:18:33;;;;;;;5.22;2.45;;;;;;;;;;7393358;19;20331;-79
2022/01/29 11:21:00;;;;;;;3.80;2.25;;;;;;;;;;7393063;19;20013;-79
2022/01/29 11:23:27;;;;;;;4.82;1.85;;;;;;;;;;7394005;19;20043;-79
2022/01/29 11:25:58;;;;;;;6.95;1.88;;;;;;;;;;7393189;19;20152;-79
2022/01/29 11:28:26;;;;;;;5.30;2.17;;;;;;;;;;7392301;19;20085;-79
2022/01/29 11:31:10;;;;;;;4.55;1.90;;;;;;;;;;7390757;19;20503;-78
2022/01/29 11:33:58;;;;;;;3.28;1.90;;;;;;;;;;7392173;19;20002;-79
2022/01/29 11:36:49;;;;;;;2.08;1.45;;;;;;;;;;7392809;19;20014;-79
2022/01/29 11:39:23;;;;;;;2.30;1.42;;;;;;;;;;7390969;19;20796;-79
2022/01/29 11:42:13;;;;;;;2.13;1.40;;;;;;;;;;7392486;19;20014;-79
2022/01/29 11:44:39;;;;;;;3.05;1.60;;;;;;;;;;7390190;19;20072;-80
2022/01/29 11:47:23;;;;;;;4.47;1.63;;;;;;;;;;7394159;19;20085;-80
2022/01/29 11:49:50;;;;;;;2.45;1.50;;;;;;;;;;7391562;19;20007;-79
2022/01/29 11:52:25;;;;;;;4.50;1.80;;;;;;;;;;7391790;19;20032;-80
2022/01/29 11:55:04;;;;;;;1.75;1.35;;;;;;;;;;7391172;19;20002;-79
2022/01/29 11:57:29;;;;;;;2.95;1.52;;;;;;;;;;7391565;19;20070;-81
2022/01/29 11:59:55;;;;;;;2.13;1.40;;;;;;;;;;7390220;19;20002;-81
2022/01/29 12:02:20;;;;;;;2.40;1.60;;;;;;;;;;7391686;19;20003;-80
2022/01/29 12:04:48;;;;;;;2.38;1.45;;;;;;;;;;7393871;19;20014;-80
2022/01/29 12:07:22;;;;;;;3.08;1.60;;;;;;;;;;7394016;19;20001;-80
2022/01/29 12:09:51;;;;;;;2.28;1.35;;;;;;;;;;7391699;19;20066;-80
2022/01/29 12:12:17;;;;;;;2.90;1.65;;;;;;;;;;7388079;19;20538;-80
2022/01/29 12:14:44;;;;;;;2.17;1.38;;;;;;;;;;7391692;19;20439;-80
2022/01/29 12:17:11;;;;;;;5.47;2.30;;;;;;;;;;7390788;19;20036;-77
2022/01/29 12:19:39;;;;;;;2.83;1.65;;;;;;;;;;7391127;19;20035;-80
2022/01/29 12:22:16;;;;;;;3.22;1.90;;;;;;;;;;7390738;19;20003;-79
2022/01/29 12:24:52;;;;;;;3.53;1.60;;;;;;;;;;7395277;19;20018;-79
2022/01/29 12:27:18;;;;;;;2.33;1.40;;;;;;;;;;7391752;19;20438;-80
2022/01/29 12:29:43;;;;;;;4.15;1.52;;;;;;;;;;7388311;19;20041;-79
2022/01/29 12:32:10;;;;;;;2.17;1.20;;;;;;;;;;7356824;19;20465;-79
2022/01/29 12:34:35;;;;;;;1.52;1.10;;;;;;;;;;7387446;19;20027;-79
2022/01/29 12:37:15;;;;;;;2.10;1.25;;;;;;;;;;7390854;19;20006;-79
2022/01/29 12:39:43;;;;;;;1.92;1.10;;;;;;;;;;7390982;19;20009;-80
2022/01/29 12:42:26;;;;;;;1.77;1.30;;;;;;;;;;7389407;19;20147;-79
2022/01/29 12:45:00;;;;;;;1.70;1.15;;;;;;;;;;7388662;19;20009;-79
2022/01/29 12:47:31;;;;;;;1.58;1.08;;;;;;;;;;7391289;19;20019;-79
2022/01/29 12:49:57;;;;;;;1.60;1.20;;;;;;;;;;7389271;19;20067;-79
2022/01/29 12:52:23;;;;;;;2.13;1.15;;;;;;;;;;7389696;19;20087;-79
2022/01/29 12:54:57;;;;;;;1.45;1.00;;;;;;;;;;7389338;19;20116;-79
2022/01/29 12:57:24;;;;;;;2.08;1.13;;;;;;;;;;7390869;19;20318;-79
2022/01/29 12:59:50;;;;;;;1.38;1.10;;;;;;;;;;7390887;19;20391;-79
2022/01/29 13:02:15;;;;;;;2.63;1.30;;;;;;;;;;7387337;19;20023;-77
2022/01/29 13:04:46;;;;;;;2.47;1.50;;;;;;;;;;7384626;19;20127;-78
2022/01/29 13:07:11;;;;;;;4.63;1.40;;;;;;;;;;7387445;19;20035;-78
2022/01/29 13:09:37;;;;;;;1.90;1.20;;;;;;;;;;7386323;19;20010;-78
2022/01/29 13:12:10;;;;;;;1.77;1.00;;;;;;;;;;7386210;19;20010;-78
2022/01/29 13:14:35;;;;;;;2.05;1.02;;;;;;;;;;7388050;19;20108;-78
2022/01/29 13:17:04;;;;;;;1.90;1.20;;;;;;;;;;7364658;19;20452;-78
2022/01/29 13:19:31;;;;;;;2.53;1.08;;;;;;;;;;7386717;19;20010;-78
2022/01/29 13:22:10;;;;;;;2.17;1.25;;;;;;;;;;7390409;19;20013;-78
2022/01/29 13:24:38;;;;;;;1.55;1.00;;;;;;;;;;7388703;19;20071;-78
2022/01/29 13:27:11;;;;;;;2.10;1.08;;;;;;;;;;7390949;19;20069;-77
2022/01/29 13:29:45;;;;;;;1.60;0.80;;;;;;;;;;7389540;19;20006;-78
2022/01/29 13:32:14;;;;;;;1.05;0.93;;;;;;;;;;7388057;19;20434;-77
2022/01/29 13:34:42;;;;;;;1.35;0.90;;;;;;;;;;7390262;19;20034;-77
2022/01/29 13:37:28;;;;;;;1.30;1.02;;;;;;;;;;7390472;19;20090;-75
2022/01/29 13:39:54;;;;;;;1.60;0.70;;;;;;;;;;7388977;19;20012;-75
2022/01/29 13:42:20;;;;;;;1.05;0.88;;;;;;;;;;7385430;19;20010;-75
2022/01/29 13:45:07;;;;;;;1.33;0.50;;;;;;;;;;7386866;19;20113;-75
2022/01/29 13:47:34;;;;;;;2.95;1.33;;;;;;;;;;7389492;19;20042;-75
2022/01/29 13:50:22;;;;;;;2.22;1.20;;;;;;;;;;7386885;19;20003;-75
2022/01/29 13:53:17;;;;;;;1.48;0.82;;;;;;;;;;7387940;19;20355;-76
2022/01/29 13:55:54;;;;;;;1.77;1.15;;;;;;;;;;7386918;19;20006;-76
2022/01/29 13:58:20;;;;;;;2.42;1.40;;;;;;;;;;7387169;19;20040;-77
2022/01/29 14:01:03;;;;;;;2.42;1.30;;;;;;;;;;7383035;19;20010;-76
2022/01/29 14:03:50;;;;;;;1.83;1.30;;;;;;;;;;7385007;19;20074;-76
2022/01/29 14:06:35;;;;;;;3.75;1.70;;;;;;;;;;7385552;19;20009;-76
2022/01/29 14:09:10;;;;;;;4.03;1.30;;;;;;;;;;7382827;19;20481;-76
2022/01/29 14:11:51;;;;;;;1.92;1.20;;;;;;;;;;7388339;19;20011;-76
2022/01/29 14:14:16;;;;;;;3.25;1.35;;;;;;;;;;7384724;19;20017;-76
2022/01/29 14:16:42;;;;;;;2.85;1.30;;;;;;;;;;7388439;19;19982;-76
2022/01/29 14:19:16;;;;;;;2.35;1.13;;;;;;;;;;7385443;19;20442;-76
2022/01/29 14:21:42;;;;;;;1.98;1.10;;;;;;;;;;7391533;19;20029;-76
2022/01/29 14:24:07;;;;;;;1.83;1.15;;;;;;;;;;7390895;19;20149;-76
2022/01/29 14:26:33;;;;;;;2.83;1.20;;;;;;;;;;7392762;19;20462;-76
2022/01/29 14:28:58;;;;;;;1.95;1.25;;;;;;;;;;7392589;19;20014;-76
2022/01/29 14:31:24;;;;;;;2.67;1.33;;;;;;;;;;7391616;19;20002;-76
2022/01/29 14:33:49;;;;;;;2.55;1.50;;;;;;;;;;7393189;19;20034;-76
2022/01/29 14:36:14;;;;;;;1.95;1.15;;;;;;;;;;7394432;19;20351;-76
2022/01/29 14:38:39;;;;;;;2.75;1.48;;;;;;;;;;7391672;19;20069;-76
2022/01/29 14:41:05;;;;;;;2.15;1.45;;;;;;;;;;7394924;19;20006;-76
2022/01/29 14:43:32;;;;;;;3.08;1.58;;;;;;;;;;7390921;19;20472;-77
2022/01/29 14:45:59;;;;;;;4.38;1.90;;;;;;;;;;7394679;19;20006;-76
2022/01/29 14:48:25;;;;;;;2.95;1.67;;;;;;;;;;7391837;19;20134;-77
2022/01/29 14:50:50;;;;;;;3.22;1.63;;;;;;;;;;7395024;19;20075;-76
2022/01/29 14:53:16;;;;;;;2.85;1.40;;;;;;;;;;7396463;19;20002;-76
2022/01/29 14:55:41;;;;;;;2.10;1.05;;;;;;;;;;7394190;19;20014;-76